createdAt,value
2022-08-17T00:00:16.569Z,28.08
2022-08-17T00:02:57.768Z,26.38
2022-08-17T00:05:25.034Z,30.05
2022-08-17T00:07:52.122Z,26.45
2022-08-17T00:10:19.394Z,34.97
2022-08-17T00:12:46.766Z,30.77
2022-08-17T00:15:15.508Z,34.35
2022-08-17T00:17:47.772Z,26.85
2022-08-17T00:20:15.875Z,25.70
2022-08-17T00:22:45.664Z,29.92
2022-08-17T00:25:17.172Z,25.50
2022-08-17T00:27:44.267Z,28.70
2022-08-17T00:30:12.776Z,27.83
2022-08-17T00:33:13.721Z,27.90
2022-08-17T00:35:34.939Z,29.33
2022-08-17T00:38:04.280Z,27.02
2022-08-17T00:40:44.220Z,30.05
2022-08-17T00:43:15.064Z,28.50
2022-08-17T00:45:42.466Z,33.90
2022-08-17T00:48:29.531Z,31.42
2022-08-17T00:51:07.413Z,31.23
2022-08-17T00:53:38.991Z,29.50
2022-08-17T00:56:10.916Z,26.40
2022-08-17T00:58:41.245Z,28.90
2022-08-17T01:01:09.947Z,34.78
2022-08-17T01:03:38.895Z,35.47
2022-08-17T01:06:08.268Z,42.95
2022-08-17T01:08:36.662Z,34.30
2022-08-17T01:11:05.526Z,34.53
2022-08-17T01:13:40.718Z,31.38
2022-08-17T01:16:25.570Z,36.50
2022-08-17T01:19:02.473Z,31.52
2022-08-17T01:22:00.654Z,31.48
2022-08-17T01:24:27.833Z,29.02
2022-08-17T01:26:56.664Z,36.85
2022-08-17T01:29:26.020Z,32.67
2022-08-17T01:31:58.768Z,31.80
2022-08-17T01:34:31.569Z,28.85
2022-08-17T01:37:13.235Z,29.67
2022-08-17T01:39:58.274Z,29.92
2022-08-17T01:42:38.305Z,31.95
2022-08-17T01:45:12.461Z,33.47
2022-08-17T01:47:40.995Z,31.30
2022-08-17T01:50:16.368Z,31.75
2022-08-17T01:52:49.576Z,34.80
2022-08-17T01:55:27.291Z,29.75
2022-08-17T01:57:55.669Z,35.35
2022-08-17T02:00:24.073Z,34.03
2022-08-17T02:02:53.053Z,29.77
2022-08-17T02:05:20.752Z,31.30
2022-08-17T02:08:00.645Z,31.85
2022-08-17T02:10:34.109Z,34.28
2022-08-17T02:13:03.963Z,30.33
2022-08-17T02:15:35.403Z,30.37
2022-08-17T02:18:05.627Z,37.03
2022-08-17T02:20:42.126Z,37.13
2022-08-17T02:23:13.203Z,32.00
2022-08-17T02:25:43.539Z,37.15
2022-08-17T02:28:11.331Z,32.00
2022-08-17T02:31:01.410Z,34.25
2022-08-17T02:33:41.629Z,30.95
2022-08-17T02:36:09.791Z,35.13
2022-08-17T02:38:38.462Z,29.55
2022-08-17T02:41:08.803Z,22.80
2022-08-17T02:43:45.462Z,27.55
2022-08-17T02:46:14.791Z,29.05
2022-08-17T02:48:41.906Z,25.92
2022-08-17T02:51:09.331Z,24.48
2022-08-17T02:53:36.450Z,25.00
2022-08-17T02:56:04.383Z,23.15
2022-08-17T02:58:35.331Z,22.23
2022-08-17T03:01:06.247Z,22.63
2022-08-17T03:03:33.757Z,20.02
2022-08-17T03:06:01.538Z,27.48
2022-08-17T03:08:30.971Z,20.98
2022-08-17T03:10:58.025Z,23.10
2022-08-17T03:13:25.215Z,22.13
2022-08-17T03:15:52.348Z,22.63
2022-08-17T03:18:25.435Z,26.20
2022-08-17T03:20:58.693Z,21.75
2022-08-17T03:23:29.627Z,27.23
2022-08-17T03:25:58.484Z,29.67
2022-08-17T03:28:25.850Z,26.77
2022-08-17T03:30:53.157Z,20.88
2022-08-17T03:33:20.823Z,28.77
2022-08-17T03:35:48.450Z,23.92
2022-08-17T03:38:17.476Z,26.77
2022-08-17T03:40:56.753Z,23.65
2022-08-17T03:43:29.829Z,35.25
2022-08-17T03:46:34.066Z,28.10
2022-08-17T03:49:26.868Z,29.88
2022-08-17T03:52:13.791Z,32.00
2022-08-17T03:55:00.909Z,28.70
2022-08-17T03:57:29.280Z,29.77
2022-08-17T03:59:57.751Z,28.80
2022-08-17T04:02:29.307Z,30.90
2022-08-17T04:04:56.979Z,34.38
2022-08-17T04:07:26.027Z,34.05
2022-08-17T04:09:53.341Z,39.30
2022-08-17T04:12:22.144Z,36.25
2022-08-17T04:14:53.070Z,33.40
2022-08-17T04:17:24.875Z,32.20
2022-08-17T04:19:52.431Z,42.10
2022-08-17T04:22:30.152Z,40.40
2022-08-17T04:25:09.705Z,40.83
2022-08-17T04:27:37.998Z,34.58
2022-08-17T04:30:07.439Z,36.58
2022-08-17T04:33:06.358Z,41.85
2022-08-17T04:35:44.163Z,39.45
2022-08-17T04:38:14.706Z,38.58
2022-08-17T04:41:01.825Z,38.33
2022-08-17T04:43:31.071Z,36.70
2022-08-17T04:46:04.899Z,38.97
2022-08-17T04:48:37.995Z,39.00
2022-08-17T04:51:10.197Z,35.63
2022-08-17T04:53:39.656Z,39.10
2022-08-17T04:56:16.616Z,36.53
2022-08-17T04:58:50.160Z,35.50
2022-08-17T05:01:24.065Z,36.22
2022-08-17T05:03:57.295Z,38.42
2022-08-17T05:06:24.706Z,41.08
2022-08-17T05:08:52.363Z,38.55
2022-08-17T05:11:19.620Z,36.53
2022-08-17T05:13:50.206Z,38.97
2022-08-17T05:16:18.696Z,33.47
2022-08-17T05:18:46.223Z,33.92
2022-08-17T05:21:14.972Z,34.53
2022-08-17T05:23:47.156Z,34.35
2022-08-17T05:26:26.773Z,40.45
2022-08-17T05:29:00.578Z,33.65
2022-08-17T05:31:31.218Z,30.33
2022-08-17T05:33:59.129Z,30.65
2022-08-17T05:36:43.414Z,29.42
2022-08-17T05:39:16.249Z,34.58
2022-08-17T05:41:47.299Z,30.48
2022-08-17T05:44:16.584Z,29.85
2022-08-17T05:46:49.131Z,32.45
2022-08-17T05:49:21.194Z,33.45
2022-08-17T05:51:55.550Z,28.20
2022-08-17T05:54:53.883Z,31.58
2022-08-17T05:57:56.052Z,37.50
2022-08-17T06:00:26.461Z,30.40
2022-08-17T06:03:12.997Z,32.17
2022-08-17T06:06:00.199Z,33.05
2022-08-17T06:08:56.876Z,29.17
2022-08-17T06:11:43.681Z,32.53
2022-08-17T06:14:31.697Z,28.13
2022-08-17T06:17:13.572Z,28.88
2022-08-17T06:20:14.365Z,28.05
2022-08-17T06:22:46.362Z,29.38
2022-08-17T06:25:32.237Z,32.65
2022-08-17T06:28:08.723Z,29.75
2022-08-17T06:30:59.855Z,23.02
2022-08-17T06:33:35.282Z,25.15
2022-08-17T06:36:24.992Z,26.67
2022-08-17T06:39:25.104Z,25.70
2022-08-17T06:42:07.532Z,28.85
2022-08-17T06:44:54.003Z,29.15
2022-08-17T06:47:31.173Z,21.63
2022-08-17T06:50:04.279Z,33.63
2022-08-17T06:52:46.906Z,23.60
2022-08-17T06:55:24.816Z,24.48
2022-08-17T06:57:58.222Z,25.08
2022-08-17T07:00:37.010Z,28.23
2022-08-17T07:03:23.787Z,26.05
2022-08-17T07:06:12.597Z,26.85
2022-08-17T07:09:03.558Z,28.35
2022-08-17T07:11:38.575Z,27.13
2022-08-17T07:14:38.583Z,22.40
2022-08-17T07:17:18.563Z,27.30
2022-08-17T07:19:49.422Z,32.40
2022-08-17T07:22:50.357Z,24.40
2022-08-17T07:25:23.547Z,22.48
2022-08-17T07:27:56.342Z,28.83
2022-08-17T07:30:27.111Z,29.80
2022-08-17T07:32:59.447Z,19.30
2022-08-17T07:38:26.796Z,19.02
2022-08-17T07:41:04.871Z,29.38
2022-08-17T07:43:37.701Z,20.45
2022-08-17T07:46:30.086Z,20.88
2022-08-17T07:49:03.634Z,25.55
2022-08-17T07:51:34.000Z,16.30
2022-08-17T07:54:22.711Z,22.48
2022-08-17T07:57:04.449Z,18.25
2022-08-17T07:59:36.795Z,14.13
2022-08-17T08:02:38.409Z,12.25
2022-08-17T08:05:13.002Z,10.05
2022-08-17T08:07:56.545Z,15.30
2022-08-17T08:10:36.872Z,13.10
2022-08-17T08:13:23.935Z,15.07
2022-08-17T08:15:55.862Z,14.10
2022-08-17T08:18:38.673Z,15.57
2022-08-17T08:21:42.235Z,16.05
2022-08-17T08:24:30.148Z,15.27
2022-08-17T08:27:36.858Z,17.15
2022-08-17T08:30:16.538Z,13.50
2022-08-17T08:33:07.757Z,17.45
2022-08-17T08:35:34.774Z,13.77
2022-08-17T08:38:16.967Z,15.32
2022-08-17T08:41:01.565Z,16.40
2022-08-17T08:43:43.887Z,12.85
2022-08-17T08:46:29.326Z,16.05
2022-08-17T08:50:09.236Z,9.05
2022-08-17T08:53:10.223Z,16.25
2022-08-17T08:56:00.554Z,18.83
2022-08-17T08:58:54.041Z,20.85
2022-08-17T09:01:38.268Z,7.88
2022-08-17T09:04:26.533Z,12.43
2022-08-17T09:07:22.432Z,8.50
2022-08-17T09:09:59.654Z,15.00
2022-08-17T09:12:48.950Z,13.60
2022-08-17T09:15:35.069Z,11.50
2022-08-17T09:19:00.068Z,11.48
2022-08-17T09:21:07.984Z,11.63
2022-08-17T09:23:59.645Z,11.35
2022-08-17T09:26:35.326Z,15.18
2022-08-17T09:29:08.775Z,14.45
2022-08-17T09:31:48.951Z,16.92
2022-08-17T09:34:29.579Z,13.55
2022-08-17T09:37:03.641Z,14.40
2022-08-17T09:39:41.816Z,13.85
2022-08-17T09:42:32.423Z,9.57
2022-08-17T09:45:23.818Z,14.68
2022-08-17T09:48:05.081Z,12.82
2022-08-17T09:51:03.771Z,12.30
2022-08-17T09:53:32.257Z,7.90
2022-08-17T09:56:27.755Z,15.50
2022-08-17T09:59:38.710Z,11.40
2022-08-17T10:02:45.043Z,11.55
2022-08-17T10:05:49.542Z,9.10
2022-08-17T10:09:09.057Z,9.38
2022-08-17T10:12:04.645Z,9.05
2022-08-17T10:15:09.899Z,10.65
2022-08-17T10:18:03.839Z,8.00
2022-08-17T10:21:21.727Z,8.95
2022-08-17T10:24:13.390Z,5.85
2022-08-17T10:26:56.044Z,8.77
2022-08-17T10:29:49.254Z,7.90
2022-08-17T10:32:32.988Z,10.18
2022-08-17T10:35:26.131Z,11.60
2022-08-17T10:40:45.606Z,6.82
2022-08-17T10:43:15.613Z,7.63
2022-08-17T10:46:30.043Z,8.30
2022-08-17T10:49:23.899Z,11.18
2022-08-17T10:51:57.113Z,7.38
2022-08-17T10:54:39.214Z,11.98
2022-08-17T10:57:28.402Z,13.52
2022-08-17T10:59:57.069Z,9.48
2022-08-17T11:02:40.849Z,11.90
2022-08-17T11:05:20.671Z,13.25
2022-08-17T11:08:26.568Z,16.45
2022-08-17T11:10:59.031Z,9.23
2022-08-17T11:13:38.356Z,8.00
2022-08-17T11:16:33.336Z,13.40
2022-08-17T11:19:30.825Z,13.48
2022-08-17T11:22:31.311Z,7.60
2022-08-17T11:25:35.799Z,14.43
2022-08-17T11:28:25.071Z,12.13
2022-08-17T11:30:59.721Z,7.85
2022-08-17T11:33:30.325Z,13.63
2022-08-17T11:36:18.222Z,14.35
2022-08-17T11:38:46.354Z,9.55
2022-08-17T11:41:16.427Z,9.10
2022-08-17T11:44:04.880Z,13.18
2022-08-17T11:47:08.868Z,11.48
2022-08-17T11:50:00.593Z,10.40
2022-08-17T11:52:45.948Z,11.80
2022-08-17T11:55:41.766Z,9.57
2022-08-17T11:58:29.494Z,9.07
2022-08-17T12:00:59.027Z,8.48
2022-08-17T12:03:55.392Z,9.35
2022-08-17T12:06:54.989Z,12.18
2022-08-17T12:09:26.491Z,14.07
2022-08-17T12:12:12.962Z,8.80
2022-08-17T12:15:09.542Z,20.30
2022-08-17T12:17:40.815Z,14.65
2022-08-17T12:20:24.201Z,14.60
2022-08-17T12:23:04.984Z,14.98
2022-08-17T12:25:47.552Z,10.10
2022-08-17T12:28:30.588Z,9.65
2022-08-17T12:31:02.577Z,12.45
2022-08-17T12:33:30.491Z,20.40
2022-08-17T12:36:04.645Z,12.13
2022-08-17T12:38:35.220Z,12.70
2022-08-17T12:41:29.295Z,12.48
2022-08-17T12:44:31.068Z,11.23
2022-08-17T12:47:21.064Z,11.00
2022-08-17T12:49:51.733Z,13.85
2022-08-17T12:52:24.892Z,17.45
2022-08-17T12:54:57.477Z,12.07
2022-08-17T12:57:33.235Z,13.73
2022-08-17T13:00:26.152Z,13.77
2022-08-17T13:03:07.819Z,9.90
2022-08-17T13:05:41.990Z,9.68
2022-08-17T13:08:24.733Z,15.27
2022-08-17T13:11:24.340Z,13.23
2022-08-17T13:13:55.276Z,11.15
2022-08-17T13:16:30.900Z,13.73
2022-08-17T13:19:03.789Z,12.25
2022-08-17T13:21:33.335Z,16.58
2022-08-17T13:24:13.920Z,11.43
2022-08-17T13:27:08.182Z,12.85
2022-08-17T13:29:44.625Z,10.88
2022-08-17T13:32:13.702Z,9.82
2022-08-17T13:34:51.384Z,10.20
2022-08-17T13:37:36.282Z,13.52
2022-08-17T13:40:09.351Z,11.35
2022-08-17T13:42:52.454Z,13.65
2022-08-17T13:45:36.886Z,12.48
2022-08-17T13:48:14.549Z,10.02
2022-08-17T13:50:56.731Z,9.32
2022-08-17T13:53:33.118Z,12.50
2022-08-17T13:56:38.056Z,14.43
2022-08-17T13:59:06.687Z,12.65
2022-08-17T14:01:54.180Z,16.83
2022-08-17T14:04:29.452Z,11.27
2022-08-17T14:07:08.892Z,14.13
2022-08-17T14:09:40.084Z,10.77
2022-08-17T14:12:11.794Z,17.15
2022-08-17T14:14:39.667Z,14.10
2022-08-17T14:17:07.873Z,10.50
2022-08-17T14:19:36.391Z,12.63
2022-08-17T14:22:05.132Z,13.52
2022-08-17T14:24:41.278Z,13.75
2022-08-17T14:27:12.459Z,15.00
2022-08-17T14:29:41.357Z,14.38
2022-08-17T14:32:24.927Z,13.38
2022-08-17T14:34:52.707Z,14.82
2022-08-17T14:37:21.141Z,11.82
2022-08-17T14:39:48.531Z,13.65
2022-08-17T14:42:17.677Z,15.27
2022-08-17T14:44:44.840Z,15.82
2022-08-17T14:47:16.017Z,14.02
2022-08-17T14:49:43.846Z,12.45
2022-08-17T14:52:18.424Z,9.25
2022-08-17T14:54:46.028Z,16.27
2022-08-17T14:57:25.246Z,10.02
2022-08-17T15:00:01.532Z,10.48
2022-08-17T15:02:48.934Z,7.65
2022-08-17T15:05:17.494Z,9.88
2022-08-17T15:07:44.775Z,12.35
2022-08-17T15:10:13.676Z,11.75
2022-08-17T15:12:41.602Z,15.63
2022-08-17T15:15:12.128Z,9.88
2022-08-17T15:17:43.846Z,12.43
2022-08-17T15:20:16.797Z,8.20
2022-08-17T15:22:45.665Z,11.93
2022-08-17T15:25:13.158Z,10.05
2022-08-17T15:27:40.605Z,13.60
2022-08-17T15:30:10.107Z,11.32
2022-08-17T15:32:40.707Z,11.75
2022-08-17T15:35:11.879Z,15.30
2022-08-17T15:37:40.474Z,14.45
2022-08-17T15:40:09.717Z,11.50
2022-08-17T15:42:38.633Z,10.45
2022-08-17T15:45:13.636Z,11.73
2022-08-17T15:47:40.987Z,10.05
2022-08-17T15:50:09.329Z,17.52
2022-08-17T15:52:40.342Z,15.07
2022-08-17T15:55:12.620Z,11.88
2022-08-17T15:57:40.235Z,16.40
2022-08-17T16:00:08.829Z,19.80
2022-08-17T16:03:44.388Z,14.10
2022-08-17T16:05:31.229Z,16.52
2022-08-17T16:07:59.933Z,10.63
2022-08-17T16:10:35.009Z,19.63
2022-08-17T16:13:04.321Z,12.45
2022-08-17T16:15:32.121Z,18.90
2022-08-17T16:17:59.609Z,12.38
2022-08-17T16:20:27.495Z,22.60
2022-08-17T16:22:55.145Z,27.05
2022-08-17T16:25:47.171Z,22.77
2022-08-17T16:28:17.674Z,23.05
2022-08-17T16:30:45.560Z,23.00
2022-08-17T16:33:12.928Z,18.00
2022-08-17T16:35:40.050Z,17.63
2022-08-17T16:38:07.457Z,9.32
2022-08-17T16:40:36.220Z,15.40
2022-08-17T16:43:07.132Z,15.88
2022-08-17T16:45:36.966Z,13.02
2022-08-17T16:48:04.729Z,14.88
2022-08-17T16:50:32.689Z,13.70
2022-08-17T16:53:10.774Z,11.82
2022-08-17T16:55:38.855Z,14.63
2022-08-17T16:58:08.881Z,14.48
2022-08-17T17:00:36.875Z,12.27
2022-08-17T17:03:31.812Z,9.80
2022-08-17T17:06:13.761Z,20.50
2022-08-17T17:08:49.257Z,16.00
2022-08-17T17:11:25.163Z,15.50
2022-08-17T17:13:59.724Z,16.65
2022-08-17T17:17:15.141Z,17.60
2022-08-17T17:20:08.094Z,13.90
2022-08-17T17:25:17.540Z,17.83
2022-08-17T17:28:35.778Z,15.85
2022-08-17T17:31:23.866Z,20.85
2022-08-17T17:34:00.542Z,20.58
2022-08-17T17:36:48.436Z,10.90
2022-08-17T17:39:43.882Z,20.17
2022-08-17T17:42:19.883Z,11.70
2022-08-17T17:44:55.782Z,17.13
2022-08-17T17:47:23.032Z,8.50
2022-08-17T17:49:50.465Z,13.57
2022-08-17T17:52:20.318Z,16.95
2022-08-17T17:54:48.060Z,12.00
2022-08-17T17:57:39.538Z,12.98
2022-08-17T18:00:24.762Z,17.85
2022-08-17T18:03:01.341Z,11.00
2022-08-17T18:05:49.019Z,21.60
2022-08-17T18:08:34.107Z,21.65
2022-08-17T18:11:13.228Z,20.95
2022-08-17T18:14:20.043Z,19.40
2022-08-17T18:16:55.731Z,19.33
2022-08-17T18:19:25.692Z,18.23
2022-08-17T18:22:14.913Z,16.30
2022-08-17T18:24:45.962Z,13.93
2022-08-17T18:27:30.481Z,15.30
2022-08-17T18:29:59.870Z,15.82
2022-08-17T18:32:36.793Z,17.60
2022-08-17T18:35:28.130Z,13.38
2022-08-17T18:38:19.972Z,16.58
2022-08-17T18:40:58.175Z,24.40
2022-08-17T18:43:44.438Z,10.38
2022-08-17T18:46:28.909Z,15.30
2022-08-17T18:49:25.215Z,16.55
2022-08-17T18:52:07.842Z,13.00
2022-08-17T18:54:36.283Z,19.15
2022-08-17T18:57:05.336Z,15.88
2022-08-17T18:59:38.787Z,15.95
2022-08-17T19:02:45.652Z,17.52
2022-08-17T19:05:28.946Z,12.77
2022-08-17T19:10:46.176Z,18.25
2022-08-17T19:13:34.212Z,15.82
2022-08-17T19:16:18.371Z,13.30
2022-08-17T19:18:58.828Z,14.77
2022-08-17T19:21:56.239Z,14.48
2022-08-17T19:24:26.609Z,12.77
2022-08-17T19:27:02.417Z,11.50
2022-08-17T19:29:51.912Z,18.00
2022-08-17T19:32:27.022Z,19.63
2022-08-17T19:34:55.339Z,18.27
2022-08-17T19:38:01.538Z,19.15
2022-08-17T19:40:52.747Z,23.30
2022-08-17T19:43:42.190Z,12.02
2022-08-17T19:46:13.952Z,18.63
2022-08-17T19:48:46.984Z,18.05
2022-08-17T19:51:31.616Z,19.90
2022-08-17T19:54:10.562Z,10.32
2022-08-17T19:56:58.927Z,11.98
2022-08-17T20:00:09.097Z,14.32
2022-08-17T20:02:52.921Z,14.75
2022-08-17T20:06:36.801Z,14.63
2022-08-17T20:09:16.711Z,14.02
2022-08-17T20:11:49.129Z,14.40
2022-08-17T20:14:24.770Z,12.85
2022-08-17T20:16:52.526Z,16.13
2022-08-17T20:19:45.649Z,14.45
2022-08-17T20:22:21.239Z,18.42
2022-08-17T20:24:51.409Z,11.15
2022-08-17T20:27:32.126Z,11.55
2022-08-17T20:30:01.801Z,20.10
2022-08-17T20:32:36.901Z,11.10
2022-08-17T20:35:26.210Z,13.07
2022-08-17T20:37:55.700Z,12.80
2022-08-17T20:40:28.540Z,12.73
2022-08-17T20:42:57.408Z,13.25
2022-08-17T20:45:26.407Z,16.83
2022-08-17T20:48:23.997Z,14.10
2022-08-17T20:50:56.273Z,16.88
2022-08-17T20:53:48.293Z,15.40
2022-08-17T20:56:44.583Z,10.65
2022-08-17T20:59:21.077Z,10.60
2022-08-17T21:02:19.115Z,12.38
2022-08-17T21:04:50.013Z,14.75
2022-08-17T21:07:43.733Z,16.25
2022-08-17T21:10:26.393Z,13.55
2022-08-17T21:13:10.314Z,14.90
2022-08-17T21:15:57.395Z,15.73
2022-08-17T21:18:49.825Z,10.93
2022-08-17T21:21:26.100Z,15.63
2022-08-17T21:24:19.467Z,13.80
2022-08-17T21:27:26.540Z,15.23
2022-08-17T21:30:13.274Z,12.52
2022-08-17T21:32:42.264Z,14.15
2022-08-17T21:35:28.730Z,13.88
2022-08-17T21:38:02.500Z,15.25
2022-08-17T21:40:31.413Z,14.00
2022-08-17T21:43:17.134Z,14.40
2022-08-17T21:45:55.589Z,20.35
2022-08-17T21:48:25.560Z,14.80
2022-08-17T21:51:01.982Z,13.85
2022-08-17T21:53:36.794Z,11.95
2022-08-17T21:56:05.182Z,17.00
2022-08-17T21:58:40.238Z,18.20
2022-08-17T22:01:13.682Z,18.02
2022-08-17T22:03:47.893Z,20.88
2022-08-17T22:06:33.552Z,14.45
2022-08-17T22:09:22.478Z,18.52
2022-08-17T22:11:57.889Z,19.33
2022-08-17T22:14:52.247Z,10.48
2022-08-17T22:17:35.538Z,20.42
2022-08-17T22:20:14.415Z,16.98
2022-08-17T22:23:09.120Z,22.52
2022-08-17T22:25:39.955Z,19.13
2022-08-17T22:28:12.936Z,14.35
2022-08-17T22:30:42.249Z,12.80
2022-08-17T22:33:39.708Z,17.63
2022-08-17T22:36:09.985Z,21.23
2022-08-17T22:38:38.295Z,16.92
2022-08-17T22:41:17.510Z,17.77
2022-08-17T22:43:45.024Z,17.55
2022-08-17T22:46:12.831Z,13.10
2022-08-17T22:48:48.697Z,15.93
2022-08-17T22:51:21.450Z,19.25
2022-08-17T22:56:55.785Z,19.73
2022-08-17T22:59:43.833Z,22.58
2022-08-17T23:02:16.349Z,17.92
2022-08-17T23:07:16.003Z,18.20
2022-08-17T23:09:43.825Z,19.38
2022-08-17T23:12:16.091Z,20.15
2022-08-17T23:14:45.799Z,18.92
2022-08-17T23:17:13.573Z,15.10
2022-08-17T23:19:40.844Z,19.50
2022-08-17T23:22:09.702Z,21.20
2022-08-17T23:24:46.445Z,20.33
2022-08-17T23:27:13.853Z,21.33
2022-08-17T23:29:42.293Z,17.45
2022-08-17T23:32:13.674Z,17.95
2022-08-17T23:34:42.528Z,19.83
2022-08-17T23:37:11.454Z,21.27
2022-08-17T23:39:39.531Z,17.95
2022-08-17T23:42:10.711Z,22.88
2022-08-17T23:44:40.675Z,26.80
2022-08-17T23:47:08.172Z,20.95
2022-08-17T23:49:36.444Z,18.80
2022-08-17T23:52:07.094Z,13.65
2022-08-17T23:54:43.833Z,21.02
2022-08-17T23:57:13.862Z,14.85
2022-08-17T23:59:43.917Z,17.52
